Time;durP1;ratioP1;P1;durP2;ratioP2;P2;SDS_P1;SDS_P2;PMS_P1;PMS_P2;Temp;Humidity;BMP_temperature;BMP_pressure;BME280_temperature;BME280_humidity;BME280_pressure;Samples;Min_cycle;Max_cycle;Signal;HPM_P1;HPM_P2
2022/04/29 00:00:42;;;;;;;13.15;6.30;;;7.30;99.90;;;;;;5065027;28;20045;-33
2022/04/29 00:03:09;;;;;;;14.23;7.65;;;7.30;99.90;;;;;;5063176;28;20554;-33
2022/04/29 00:05:36;;;;;;;17.05;7.25;;;7.20;99.90;;;;;;5060970;28;20054;-42
2022/04/29 00:08:03;;;;;;;13.38;6.90;;;7.20;99.90;;;;;;5069627;28;20404;-41
2022/04/29 00:10:29;;;;;;;13.32;5.88;;;7.20;99.80;;;;;;5066470;28;20045;-40
2022/04/29 00:12:58;;;;;;;17.15;7.25;;;7.30;99.50;;;;;;5061208;28;20297;-40
2022/04/29 00:15:25;;;;;;;12.95;7.75;;;7.30;99.50;;;;;;5064862;28;20049;-42
2022/04/29 00:17:51;;;;;;;12.30;6.22;;;7.30;99.40;;;;;;5066528;28;20056;-42
2022/04/29 00:20:18;;;;;;;16.35;7.90;;;7.30;99.20;;;;;;5059581;28;20123;-38
2022/04/29 00:22:45;;;;;;;16.42;6.55;;;7.30;99.20;;;;;;5066828;28;20053;-43
2022/04/29 00:25:12;;;;;;;15.80;7.13;;;7.30;99.10;;;;;;5065113;28;20386;-41
2022/04/29 00:27:40;;;;;;;14.32;6.63;;;7.30;99.00;;;;;;5068368;28;20052;-42
2022/04/29 00:30:09;;;;;;;15.63;6.95;;;7.30;99.00;;;;;;5066730;28;20139;-37
2022/04/29 00:32:36;;;;;;;17.80;7.20;;;7.30;99.30;;;;;;5066196;28;20051;-41
2022/04/29 00:35:03;;;;;;;15.25;7.68;;;7.20;99.40;;;;;;5068225;28;20128;-41
2022/04/29 00:37:30;;;;;;;18.95;8.68;;;7.20;99.60;;;;;;5060598;28;20048;-42
2022/04/29 00:39:56;;;;;;;12.65;7.13;;;7.20;99.70;;;;;;5055736;28;20053;-42
2022/04/29 00:42:23;;;;;;;14.95;6.85;;;7.20;99.80;;;;;;5063900;28;20412;-41
2022/04/29 00:44:50;;;;;;;13.65;7.28;;;7.10;99.80;;;;;;5068902;28;20052;-40
2022/04/29 00:47:20;;;;;;;13.73;6.78;;;7.10;99.70;;;;;;5059020;28;20052;-41
2022/04/29 00:49:47;;;;;;;13.85;7.20;;;7.20;99.30;;;;;;5065402;28;20053;-39
2022/04/29 00:52:15;;;;;;;16.30;8.32;;;7.20;99.30;;;;;;5054630;28;20060;-42
2022/04/29 00:54:43;;;;;;;16.30;6.82;;;7.10;99.30;;;;;;5062968;28;20045;-42
2022/04/29 00:57:12;;;;;;;15.35;6.88;;;7.10;99.10;;;;;;5069292;28;20478;-41
2022/04/29 00:59:41;;;;;;;11.27;6.90;;;7.10;99.00;;;;;;5070336;28;20044;-42
2022/04/29 01:02:09;;;;;;;17.88;8.75;;;7.10;98.90;;;;;;5060875;28;20411;-42
2022/04/29 01:04:39;;;;;;;21.65;9.98;;;7.10;99.20;;;;;;5065502;28;20477;-40
2022/04/29 01:07:05;;;;;;;13.77;8.00;;;7.10;99.50;;;;;;5060791;28;20053;-39
2022/04/29 01:09:32;;;;;;;14.07;7.03;;;7.00;99.60;;;;;;5062846;28;20107;-41
2022/04/29 01:11:59;;;;;;;12.82;6.90;;;7.00;99.40;;;;;;5066972;28;20131;-41
2022/04/29 01:14:25;;;;;;;15.35;7.45;;;7.00;99.20;;;;;;5069843;28;20045;-40
2022/04/29 01:16:52;;;;;;;11.05;6.78;;;7.00;99.10;;;;;;5063880;28;20044;-42
2022/04/29 01:19:19;;;;;;;15.40;7.78;;;6.90;99.00;;;;;;5070101;28;20052;-42
2022/04/29 01:21:47;;;;;;;14.68;7.00;;;6.90;98.80;;;;;;5069238;28;20084;-39
2022/04/29 01:24:15;;;;;;;13.85;7.47;;;6.90;98.80;;;;;;5066078;28;20063;-43
2022/04/29 01:26:41;;;;;;;16.77;7.18;;;6.90;98.70;;;;;;5069863;28;20484;-40
2022/04/29 01:29:08;;;;;;;13.13;6.85;;;6.90;98.60;;;;;;5065426;28;20045;-40
2022/04/29 01:31:35;;;;;;;14.63;6.57;;;6.90;98.40;;;;;;5064211;28;20063;-40
2022/04/29 01:34:02;;;;;;;14.43;7.18;;;6.90;98.40;;;;;;5066526;28;20049;-41
2022/04/29 01:36:29;;;;;;;12.82;7.45;;;6.90;98.40;;;;;;5065471;28;20053;-40
2022/04/29 01:38:56;;;;;;;16.98;7.80;;;6.90;98.30;;;;;;5063983;28;20059;-40
2022/04/29 01:41:24;;;;;;;17.33;8.02;;;6.80;98.30;;;;;;5070549;28;20052;-39
2022/04/29 01:43:50;;;;;;;13.68;7.07;;;6.80;98.60;;;;;;5070466;28;20055;-36
2022/04/29 01:46:17;;;;;;;14.05;7.57;;;6.80;98.80;;;;;;5067287;28;20048;-39
2022/04/29 01:48:44;;;;;;;15.13;8.05;;;6.70;98.70;;;;;;5070982;28;20045;-40
2022/04/29 01:51:10;;;;;;;14.50;7.78;;;6.70;98.80;;;;;;5073739;28;20523;-40
2022/04/29 01:53:37;;;;;;;16.13;9.00;;;6.70;98.80;;;;;;5066289;28;20481;-40
2022/04/29 01:56:04;;;;;;;15.02;8.15;;;6.70;99.40;;;;;;5061309;28;20511;-38
2022/04/29 01:58:32;;;;;;;16.73;8.10;;;6.70;99.30;;;;;;5071782;28;20485;-41
2022/04/29 02:00:59;;;;;;;13.70;7.38;;;6.60;99.50;;;;;;5059665;28;20052;-39
2022/04/29 02:03:26;;;;;;;12.25;7.22;;;6.60;99.40;;;;;;5064874;28;20064;-40
2022/04/29 02:05:52;;;;;;;13.85;7.07;;;6.50;99.30;;;;;;5072582;28;20127;-38
2022/04/29 02:08:19;;;;;;;16.00;8.95;;;6.50;99.10;;;;;;5063810;28;20062;-41
2022/04/29 02:10:46;;;;;;;14.48;8.77;;;6.50;99.50;;;;;;5064062;28;20131;-40
2022/04/29 02:13:13;;;;;;;16.58;9.13;;;6.40;99.90;;;;;;5063779;28;20055;-38
2022/04/29 02:15:41;;;;;;;22.02;9.02;;;6.40;99.90;;;;;;5063809;28;20082;-41
2022/04/29 02:18:08;;;;;;;12.38;8.13;;;6.40;99.90;;;;;;5071818;28;20431;-35
2022/04/29 02:20:34;;;;;;;13.75;7.22;;;6.30;99.90;;;;;;5064766;28;20126;-40
2022/04/29 02:23:01;;;;;;;13.80;7.30;;;6.30;99.90;;;;;;5071292;28;20048;-40
2022/04/29 02:25:28;;;;;;;12.40;8.13;;;6.30;99.90;;;;;;5065209;28;20124;-42
2022/04/29 02:27:54;;;;;;;12.70;7.75;;;6.30;99.90;;;;;;5072177;28;20432;-36
2022/04/29 02:30:21;;;;;;;24.52;9.73;;;6.20;99.90;;;;;;5062683;28;20045;-41
2022/04/29 02:32:49;;;;;;;16.95;9.25;;;6.30;99.90;;;;;;5064545;28;20071;-39
2022/04/29 02:35:16;;;;;;;14.60;9.43;;;6.20;99.90;;;;;;5067644;28;20420;-42
2022/04/29 02:37:42;;;;;;;12.35;8.63;;;6.20;99.90;;;;;;5062818;28;20060;-40
2022/04/29 02:40:10;;;;;;;16.13;8.63;;;6.20;99.90;;;;;;5064905;28;20059;-40
2022/04/29 02:42:37;;;;;;;15.70;8.15;;;6.20;99.90;;;;;;5065590;28;20400;-40
2022/04/29 02:45:04;;;;;;;20.10;9.20;;;6.20;99.90;;;;;;5053107;28;20053;-40
2022/04/29 02:47:31;;;;;;;17.55;10.50;;;6.20;99.90;;;;;;5066079;28;20044;-38
2022/04/29 02:49:59;;;;;;;17.83;9.60;;;6.20;99.90;;;;;;5068288;28;20049;-40
2022/04/29 02:52:26;;;;;;;17.70;9.95;;;6.20;99.90;;;;;;5064195;28;20092;-40
2022/04/29 02:54:53;;;;;;;11.85;8.43;;;6.10;99.90;;;;;;5063417;28;20084;-40
2022/04/29 02:57:19;;;;;;;14.43;9.13;;;6.10;99.90;;;;;;5065785;28;20465;-41
2022/04/29 02:59:46;;;;;;;15.13;8.80;;;6.10;99.90;;;;;;5067297;28;20049;-36
2022/04/29 03:02:13;;;;;;;19.13;8.30;;;6.10;99.90;;;;;;5060004;28;20542;-41
2022/04/29 03:04:39;;;;;;;17.52;8.75;;;6.10;99.90;;;;;;5060224;28;20431;-40
2022/04/29 03:07:07;;;;;;;12.75;8.38;;;6.20;99.90;;;;;;5066451;28;20401;-36
2022/04/29 03:09:34;;;;;;;23.30;9.90;;;6.10;99.90;;;;;;5063974;28;20045;-38
2022/04/29 03:12:01;;;;;;;15.82;9.35;;;6.10;99.90;;;;;;5068547;28;20123;-37
2022/04/29 03:14:28;;;;;;;22.33;9.95;;;6.00;99.90;;;;;;5071635;28;20048;-39
2022/04/29 03:16:54;;;;;;;15.65;10.80;;;6.10;99.90;;;;;;5064252;28;20056;-41
2022/04/29 03:19:21;;;;;;;12.82;8.75;;;6.10;99.90;;;;;;5068769;28;20673;-39
2022/04/29 03:21:48;;;;;;;16.77;9.73;;;6.00;99.90;;;;;;5068174;28;20067;-39
2022/04/29 03:24:16;;;;;;;13.38;8.93;;;6.00;99.90;;;;;;5069009;28;20084;-39
2022/04/29 03:26:42;;;;;;;17.08;8.95;;;6.00;99.90;;;;;;5061019;28;20072;-41
2022/04/29 03:29:09;;;;;;;16.52;9.40;;;6.00;99.90;;;;;;5067243;28;20040;-39
2022/04/29 03:31:36;;;;;;;17.42;8.88;;;6.00;99.90;;;;;;5056622;28;20053;-41
2022/04/29 03:34:02;;;;;;;11.43;7.65;;;6.00;99.90;;;;;;5059515;28;20052;-36
2022/04/29 03:36:29;;;;;;;11.35;9.13;;;6.00;99.90;;;;;;5069454;28;20048;-40
2022/04/29 03:38:56;;;;;;;12.00;8.57;;;5.90;99.90;;;;;;5063353;28;20043;-39
2022/04/29 03:41:24;;;;;;;15.80;8.07;;;5.90;99.90;;;;;;5063534;28;20059;-40
2022/04/29 03:43:51;;;;;;;14.15;8.45;;;6.00;99.90;;;;;;5059772;28;20049;-42
2022/04/29 03:46:17;;;;;;;11.40;8.65;;;5.90;99.90;;;;;;5065241;28;20049;-41
2022/04/29 03:51:29;;;;;;;15.88;9.00;;;5.90;99.90;;;;;;5061017;28;20044;-40
2022/04/29 03:53:55;;;;;;;16.63;9.68;;;5.80;99.90;;;;;;5066869;28;20055;-41
2022/04/29 03:56:25;;;;;;;10.93;8.10;;;5.90;99.90;;;;;;5061014;28;20401;-39
2022/04/29 03:58:52;;;;;;;17.88;9.55;;;5.80;99.90;;;;;;5054087;28;20087;-38
2022/04/29 04:01:18;;;;;;;15.32;8.82;;;5.90;99.90;;;;;;5066005;28;20045;-41
2022/04/29 04:03:45;;;;;;;15.05;8.68;;;5.90;99.90;;;;;;5067443;28;20083;-39
2022/04/29 04:08:56;;;;;;;17.02;9.15;;;5.80;99.90;;;;;;5070756;28;20040;-41
2022/04/29 04:11:24;;;;;;;14.65;8.15;;;5.80;99.90;;;;;;5061003;28;20131;-43
2022/04/29 04:13:51;;;;;;;16.48;7.72;;;5.80;99.90;;;;;;5063928;28;20488;-41
2022/04/29 04:16:18;;;;;;;21.55;10.57;;;5.80;99.90;;;;;;5062356;28;20051;-40
2022/04/29 04:18:44;;;;;;;22.90;12.60;;;5.80;99.90;;;;;;5060464;28;20048;-41
2022/04/29 04:21:11;;;;;;;25.35;11.95;;;5.70;99.90;;;;;;5068980;28;20548;-39
2022/04/29 04:23:38;;;;;;;19.95;11.27;;;5.70;99.90;;;;;;5061569;28;20717;-39
2022/04/29 04:26:04;;;;;;;19.52;10.38;;;5.60;99.90;;;;;;5071731;28;20052;-40
2022/04/29 04:28:32;;;;;;;18.00;9.85;;;5.60;99.90;;;;;;5065356;28;20059;-40
2022/04/29 04:30:59;;;;;;;18.13;10.38;;;5.60;99.90;;;;;;5063257;28;20048;-41
2022/04/29 04:33:26;;;;;;;15.32;9.02;;;5.60;99.90;;;;;;5061286;28;20489;-41
2022/04/29 04:35:52;;;;;;;22.13;11.18;;;5.70;99.90;;;;;;5052653;28;20055;-42
2022/04/29 04:38:19;;;;;;;15.07;10.27;;;5.70;99.90;;;;;;5065145;28;20119;-42
2022/04/29 04:40:47;;;;;;;24.63;13.48;;;5.70;99.90;;;;;;5066923;28;20052;-39
2022/04/29 04:43:13;;;;;;;26.75;11.82;;;5.70;99.90;;;;;;5058689;28;20044;-40
2022/04/29 04:45:42;;;;;;;15.75;9.93;;;5.70;99.90;;;;;;5065999;28;20045;-38
2022/04/29 04:48:08;;;;;;;16.88;11.13;;;5.70;99.90;;;;;;5066036;28;20374;-42
2022/04/29 04:50:35;;;;;;;17.60;11.48;;;5.70;99.90;;;;;;5068169;28;20057;-43
2022/04/29 04:53:02;;;;;;;19.13;11.38;;;5.80;99.90;;;;;;5061012;28;20055;-39
2022/04/29 04:55:28;;;;;;;18.88;10.60;;;5.80;99.90;;;;;;5073251;28;20063;-41
2022/04/29 04:57:55;;;;;;;21.15;10.88;;;5.90;99.90;;;;;;5073472;28;20442;-42
2022/04/29 05:00:22;;;;;;;21.42;10.75;;;5.90;99.90;;;;;;5069469;28;20044;-43
2022/04/29 05:02:50;;;;;;;23.00;11.15;;;6.00;99.90;;;;;;5066068;28;20396;-42
2022/04/29 05:05:17;;;;;;;19.08;10.68;;;6.00;99.90;;;;;;5066267;28;20051;-41
2022/04/29 05:07:44;;;;;;;23.88;11.75;;;6.10;99.90;;;;;;5070849;28;20052;-39
2022/04/29 05:10:11;;;;;;;23.75;12.35;;;6.10;99.90;;;;;;5067265;28;20049;-41
2022/04/29 05:12:41;;;;;;;26.00;13.52;;;6.20;99.90;;;;;;5071985;28;20394;-43
2022/04/29 05:15:09;;;;;;;21.52;11.65;;;6.20;99.90;;;;;;5065349;28;20049;-41
2022/04/29 05:17:35;;;;;;;26.42;12.60;;;6.20;99.90;;;;;;5066296;28;20058;-38
2022/04/29 05:20:04;;;;;;;30.33;12.90;;;6.30;99.90;;;;;;5067269;28;20052;-37
2022/04/29 05:22:31;;;;;;;24.65;12.98;;;6.30;99.90;;;;;;5067513;28;20048;-39
2022/04/29 05:24:57;;;;;;;26.13;12.80;;;6.40;99.90;;;;;;5073901;28;20054;-38
2022/04/29 05:27:24;;;;;;;24.58;11.90;;;6.40;99.90;;;;;;5062901;28;20060;-41
2022/04/29 05:29:51;;;;;;;28.25;13.05;;;6.50;99.90;;;;;;5062883;28;20048;-39
2022/04/29 05:32:18;;;;;;;21.80;12.52;;;6.60;99.90;;;;;;5062831;28;20404;-39
2022/04/29 05:34:44;;;;;;;25.50;13.88;;;6.70;99.90;;;;;;5066401;28;20044;-40
2022/04/29 05:37:12;;;;;;;26.55;13.23;;;6.70;99.90;;;;;;5071477;28;20483;-40
2022/04/29 05:42:22;;;;;;;31.38;12.55;;;6.90;99.90;;;;;;5055561;28;20060;-41
2022/04/29 05:44:49;;;;;;;27.83;11.90;;;7.00;99.90;;;;;;5063417;28;20045;-40
2022/04/29 05:47:16;;;;;;;23.67;12.38;;;7.00;99.90;;;;;;5067130;28;20055;-41
2022/04/29 05:49:42;;;;;;;18.98;10.00;;;7.10;99.90;;;;;;5073395;28;20507;-41
2022/04/29 05:52:09;;;;;;;21.30;11.18;;;7.20;99.90;;;;;;5070959;28;20049;-42
2022/04/29 05:54:37;;;;;;;20.80;10.93;;;7.30;99.90;;;;;;5071267;28;20048;-40
2022/04/29 05:57:05;;;;;;;19.52;10.27;;;7.40;99.90;;;;;;5064949;28;20040;-40
2022/04/29 05:59:31;;;;;;;20.50;10.15;;;7.50;99.90;;;;;;5067378;28;20048;-41
2022/04/29 06:01:58;;;;;;;24.25;10.30;;;7.50;99.90;;;;;;5064612;28;20126;-40
2022/04/29 06:04:25;;;;;;;18.55;9.27;;;7.70;99.90;;;;;;5067141;28;20048;-40
2022/04/29 06:06:52;;;;;;;20.48;10.48;;;7.60;99.90;;;;;;5069035;28;20041;-38
2022/04/29 06:09:18;;;;;;;18.42;9.07;;;7.70;99.90;;;;;;5072115;28;20063;-37
2022/04/29 06:11:46;;;;;;;21.15;9.57;;;7.70;99.90;;;;;;5070341;28;20404;-39
2022/04/29 06:14:13;;;;;;;18.50;9.65;;;7.80;99.90;;;;;;5062411;28;20041;-40
2022/04/29 06:16:40;;;;;;;15.95;8.95;;;7.80;99.90;;;;;;5071573;28;20044;-41
2022/04/29 06:19:06;;;;;;;17.38;8.63;;;7.80;99.90;;;;;;5096542;28;20060;-42
2022/04/29 06:21:33;;;;;;;17.63;8.30;;;7.80;99.90;;;;;;5070552;28;20511;-40
2022/04/29 06:24:00;;;;;;;13.77;8.43;;;7.90;99.90;;;;;;5063198;28;20053;-38
2022/04/29 06:26:26;;;;;;;25.35;8.55;;;7.90;99.90;;;;;;5070551;28;20040;-41
2022/04/29 06:28:54;;;;;;;20.92;8.25;;;8.00;99.90;;;;;;5065103;28;20057;-41
2022/04/29 06:31:21;;;;;;;25.50;8.20;;;8.00;99.90;;;;;;5063220;28;20481;-41
2022/04/29 06:33:48;;;;;;;19.17;8.48;;;8.00;99.90;;;;;;5067695;28;20061;-42
2022/04/29 06:36:14;;;;;;;17.33;7.40;;;8.10;99.90;;;;;;5069807;28;20040;-40
2022/04/29 06:38:41;;;;;;;15.18;8.07;;;8.10;99.90;;;;;;5074382;28;20052;-42
2022/04/29 06:41:08;;;;;;;14.38;6.95;;;8.20;99.90;;;;;;5065746;28;20057;-39
2022/04/29 06:43:34;;;;;;;13.75;7.10;;;8.30;99.90;;;;;;5067614;28;20048;-41
2022/04/29 06:46:03;;;;;;;13.85;6.90;;;8.30;99.90;;;;;;5069476;28;20478;-38
2022/04/29 06:48:29;;;;;;;15.57;6.95;;;8.40;99.90;;;;;;5073481;28;20054;-41
2022/04/29 06:50:56;;;;;;;20.90;8.55;;;8.40;99.90;;;;;;5063609;28;20044;-39
2022/04/29 06:53:23;;;;;;;16.13;8.05;;;8.50;99.90;;;;;;5064232;28;20477;-40
2022/04/29 06:55:49;;;;;;;17.05;7.97;;;8.50;99.90;;;;;;5073076;28;20057;-41
2022/04/29 06:58:16;;;;;;;16.33;7.82;;;8.50;99.90;;;;;;5071062;28;20063;-41
2022/04/29 07:00:43;;;;;;;14.88;7.25;;;8.60;99.90;;;;;;5067174;28;20481;-39
2022/04/29 07:03:11;;;;;;;14.07;7.25;;;8.60;99.90;;;;;;5069783;28;20481;-41
2022/04/29 07:05:38;;;;;;;11.45;6.38;;;8.60;99.90;;;;;;5065233;28;20480;-41
2022/04/29 07:08:05;;;;;;;15.48;7.28;;;8.70;99.90;;;;;;5064788;28;20484;-41
2022/04/29 07:10:31;;;;;;;9.07;5.80;;;8.80;99.90;;;;;;5061934;28;20059;-39
2022/04/29 07:12:58;;;;;;;11.10;6.32;;;8.80;99.90;;;;;;5064326;28;20059;-42
2022/04/29 07:15:25;;;;;;;14.68;6.75;;;8.80;99.90;;;;;;5069721;28;20045;-40
2022/04/29 07:17:51;;;;;;;19.10;6.78;;;8.90;99.90;;;;;;5060621;28;20045;-42
2022/04/29 07:20:19;;;;;;;11.75;5.72;;;8.90;99.90;;;;;;5057512;28;20050;-41
2022/04/29 07:22:46;;;;;;;12.27;5.28;;;9.00;99.90;;;;;;5064989;28;20388;-41
2022/04/29 07:25:13;;;;;;;17.75;5.60;;;9.10;99.90;;;;;;5063027;28;20135;-42
2022/04/29 07:27:40;;;;;;;14.07;4.93;;;9.10;99.90;;;;;;5072372;28;20044;-40
2022/04/29 07:30:08;;;;;;;12.30;5.25;;;9.20;99.90;;;;;;5072517;28;20052;-43
2022/04/29 07:32:35;;;;;;;12.65;4.75;;;9.20;99.90;;;;;;5069358;28;20049;-41
2022/04/29 07:43:16;;;;;;;12.50;4.70;;;9.60;99.90;;;;;;5058946;28;20045;-40
2022/04/29 07:45:43;;;;;;;10.60;4.38;;;9.60;99.90;;;;;;5061424;28;20560;-40
2022/04/29 07:48:11;;;;;;;9.70;4.25;;;9.70;99.90;;;;;;5052966;28;20084;-41
2022/04/29 07:50:39;;;;;;;10.63;3.63;;;9.70;99.90;;;;;;5065447;28;20132;-41
2022/04/29 07:53:08;;;;;;;9.95;4.15;;;9.70;99.80;;;;;;5065983;28;20053;-42
2022/04/29 07:55:35;;;;;;;13.07;4.55;;;9.80;99.50;;;;;;5052191;28;20139;-41
2022/04/29 07:58:03;;;;;;;7.55;4.10;;;9.90;99.30;;;;;;5051208;28;20516;-41
2022/04/29 08:00:31;;;;;;;10.75;4.00;;;10.10;99.30;;;;;;5053320;28;20489;-41
2022/04/29 08:03:00;;;;;;;14.07;3.47;;;10.20;99.00;;;;;;5063461;28;20075;-39
2022/04/29 08:05:27;;;;;;;8.18;3.25;;;10.20;98.50;;;;;;5063816;28;20052;-40
2022/04/29 08:07:55;;;;;;;10.82;3.67;;;10.30;98.50;;;;;;5061764;28;20051;-40
2022/04/29 08:10:26;;;;;;;11.73;3.75;;;10.50;98.20;;;;;;5066094;28;20463;-41
2022/04/29 08:12:53;;;;;;;9.98;2.90;;;10.70;97.70;;;;;;5068646;28;20048;-41
2022/04/29 08:15:20;;;;;;;14.57;3.38;;;11.00;97.60;;;;;;5065217;28;20055;-40
2022/04/29 08:17:46;;;;;;;10.05;2.42;;;11.30;97.20;;;;;;5057342;28;20045;-42
2022/04/29 08:20:13;;;;;;;10.07;3.55;;;11.40;96.60;;;;;;5064201;28;20377;-42
2022/04/29 08:22:42;;;;;;;5.40;2.80;;;11.60;95.90;;;;;;5071327;28;20055;-41
2022/04/29 08:25:09;;;;;;;11.82;2.83;;;11.60;95.10;;;;;;5055865;28;20408;-41
2022/04/29 08:27:37;;;;;;;16.77;3.42;;;11.50;94.90;;;;;;5063862;28;20040;-42
2022/04/29 08:30:05;;;;;;;8.70;3.03;;;11.60;94.50;;;;;;5059666;28;20060;-41
2022/04/29 08:32:38;;;;;;;10.40;2.60;;;11.70;94.50;;;;;;5069300;28;20307;-40
2022/04/29 08:35:05;;;;;;;10.63;2.85;;;11.80;94.30;;;;;;5056313;28;20045;-40
2022/04/29 08:37:32;;;;;;;8.02;2.58;;;11.90;93.80;;;;;;5055640;28;20099;-42
2022/04/29 08:39:59;;;;;;;9.65;2.88;;;11.90;93.60;;;;;;5065428;28;20063;-42
2022/04/29 08:42:26;;;;;;;9.20;3.00;;;12.00;93.40;;;;;;5074208;28;20048;-42
2022/04/29 08:44:55;;;;;;;5.75;2.90;;;12.00;93.80;;;;;;5065983;28;20511;-41
2022/04/29 08:47:22;;;;;;;10.13;2.92;;;12.00;93.20;;;;;;5066150;28;20044;-42
2022/04/29 08:49:49;;;;;;;10.63;3.03;;;12.10;93.50;;;;;;5074646;28;20058;-42
2022/04/29 08:52:16;;;;;;;7.00;2.72;;;12.20;93.50;;;;;;5066397;28;20131;-41
2022/04/29 09:00:15;;;;;;;6.95;3.40;;;12.10;92.50;;;;;;5067288;28;20052;-42
2022/04/29 09:02:41;;;;;;;7.50;3.45;;;12.00;92.60;;;;;;5066060;28;20387;-42
2022/04/29 09:05:10;;;;;;;8.23;3.22;;;11.90;92.80;;;;;;5067607;28;20119;-41
2022/04/29 09:07:53;;;;;;;12.73;3.45;;;11.90;92.80;;;;;;5075270;28;20041;-43
2022/04/29 09:10:20;;;;;;;9.00;2.85;;;11.90;92.50;;;;;;5065797;28;20056;-42
2022/04/29 09:12:46;;;;;;;9.30;3.33;;;12.00;92.80;;;;;;5069205;28;20439;-41
2022/04/29 09:15:16;;;;;;;9.80;3.10;;;11.90;92.20;;;;;;5066320;28;20519;-42
2022/04/29 09:17:44;;;;;;;9.52;2.88;;;11.90;92.10;;;;;;5064575;28;20056;-42
2022/04/29 09:20:14;;;;;;;10.60;3.50;;;11.90;91.90;;;;;;5073768;28;20411;-42
2022/04/29 09:22:41;;;;;;;10.05;3.50;;;11.80;92.20;;;;;;5062457;28;20045;-42
2022/04/29 09:25:08;;;;;;;9.30;2.97;;;11.80;92.00;;;;;;5063549;28;20119;-42
2022/04/29 09:27:56;;;;;;;12.23;3.13;;;11.80;92.00;;;;;;5066554;28;20127;-40
2022/04/29 09:30:38;;;;;;;8.60;2.80;;;11.90;91.90;;;;;;5063207;28;20053;-42
2022/04/29 09:33:06;;;;;;;7.57;2.60;;;12.00;91.50;;;;;;5055695;28;20413;-42
2022/04/29 09:35:40;;;;;;;14.77;3.20;;;12.00;91.80;;;;;;5072571;28;20139;-43
2022/04/29 09:40:51;;;;;;;12.88;2.75;;;12.10;91.30;;;;;;5058176;28;20044;-42
2022/04/29 09:43:18;;;;;;;9.38;2.70;;;12.20;91.50;;;;;;5066361;28;20481;-43
2022/04/29 09:45:46;;;;;;;8.13;2.72;;;12.30;91.40;;;;;;5071819;28;20053;-43
2022/04/29 09:48:12;;;;;;;9.23;2.42;;;12.50;90.90;;;;;;5061804;28;20053;-42
2022/04/29 09:50:47;;;;;;;7.25;2.17;;;12.50;90.70;;;;;;5068621;28;20055;-42
2022/04/29 09:53:18;;;;;;;9.25;2.60;;;12.60;90.60;;;;;;5069446;28;20053;-43
2022/04/29 09:56:07;;;;;;;9.65;2.58;;;12.70;90.90;;;;;;5062044;28;20555;-42
2022/04/29 09:58:33;;;;;;;5.57;2.60;;;12.80;90.50;;;;;;5063720;28;20053;-43
2022/04/29 10:01:04;;;;;;;7.38;2.60;;;12.70;90.20;;;;;;5068925;28;20063;-42
2022/04/29 10:03:30;;;;;;;6.35;2.45;;;12.70;90.40;;;;;;5065192;28;20094;-41
2022/04/29 10:05:58;;;;;;;11.35;3.05;;;12.70;90.50;;;;;;5061890;28;20056;-42
2022/04/29 10:08:27;;;;;;;7.85;2.70;;;12.70;90.00;;;;;;5062260;28;20045;-42
2022/04/29 10:10:54;;;;;;;7.68;2.78;;;12.60;90.10;;;;;;5065420;28;20052;-42
2022/04/29 10:13:23;;;;;;;7.97;2.67;;;12.50;90.20;;;;;;5064826;28;20060;-42
2022/04/29 10:15:50;;;;;;;7.60;2.80;;;12.50;90.20;;;;;;5062975;28;20055;-42
2022/04/29 10:21:18;;;;;;;10.00;2.30;;;12.60;90.20;;;;;;5057331;28;20400;-42
2022/04/29 10:23:48;;;;;;;6.43;2.20;;;12.60;90.20;;;;;;5056137;28;20064;-43
2022/04/29 10:26:17;;;;;;;6.72;2.28;;;12.60;90.20;;;;;;5065803;28;20046;-43
2022/04/29 10:28:44;;;;;;;11.65;2.45;;;12.60;90.40;;;;;;5064752;28;20052;-42
2022/04/29 10:31:16;;;;;;;8.65;2.42;;;12.60;90.40;;;;;;5065248;28;20049;-41
2022/04/29 10:33:45;;;;;;;7.40;2.42;;;12.60;90.20;;;;;;5065687;28;20123;-43
2022/04/29 10:36:14;;;;;;;5.78;2.20;;;12.60;90.30;;;;;;5065825;28;20053;-42
2022/04/29 10:38:42;;;;;;;11.18;2.40;;;12.50;90.50;;;;;;5064131;28;20048;-41
2022/04/29 10:41:10;;;;;;;4.07;1.80;;;12.60;90.40;;;;;;5061303;28;20057;-41
2022/04/29 10:43:37;;;;;;;7.30;2.30;;;12.50;90.50;;;;;;5056337;28;20082;-40
2022/04/29 10:46:23;;;;;;;9.13;2.30;;;12.50;90.60;;;;;;5065911;28;20080;-42
2022/04/29 10:48:52;;;;;;;7.65;2.30;;;12.40;90.20;;;;;;5065299;28;20455;-42
2022/04/29 10:51:20;;;;;;;7.57;2.47;;;12.30;90.50;;;;;;5069332;28;20056;-42
2022/04/29 10:53:48;;;;;;;6.72;2.30;;;12.30;90.90;;;;;;5069700;28;20041;-42
2022/04/29 10:56:36;;;;;;;8.48;2.42;;;12.30;90.80;;;;;;5070212;28;20412;-41
2022/04/29 10:59:12;;;;;;;11.15;2.80;;;12.30;90.80;;;;;;5062591;28;20463;-42
2022/04/29 11:01:39;;;;;;;6.18;2.60;;;12.30;90.50;;;;;;5073003;28;20515;-42
2022/04/29 11:04:07;;;;;;;8.63;2.40;;;12.30;90.70;;;;;;5064982;28;20053;-44
2022/04/29 11:06:38;;;;;;;6.65;2.72;;;12.30;90.70;;;;;;5064540;28;20484;-44
2022/04/29 11:09:21;;;;;;;8.90;2.42;;;12.30;90.40;;;;;;5064656;28;20044;-43
2022/04/29 11:11:48;;;;;;;8.15;2.60;;;12.30;90.50;;;;;;5072418;28;20041;-41
2022/04/29 11:14:15;;;;;;;7.70;2.78;;;12.40;90.60;;;;;;5060730;28;20045;-42
2022/04/29 11:16:49;;;;;;;7.60;2.65;;;12.40;90.50;;;;;;5066967;28;20055;-42
2022/04/29 11:19:21;;;;;;;12.60;2.75;;;12.50;90.50;;;;;;5054859;28;20119;-42
2022/04/29 11:24:43;;;;;;;5.82;2.58;;;12.60;89.50;;;;;;5054554;28;20053;-43
2022/04/29 11:27:10;;;;;;;5.88;2.67;;;12.50;90.00;;;;;;5061608;28;20053;-42
2022/04/29 11:29:42;;;;;;;9.70;2.85;;;12.60;89.90;;;;;;5056396;28;20481;-42
2022/04/29 11:32:09;;;;;;;9.38;2.72;;;12.60;89.10;;;;;;5065782;28;20056;-43
2022/04/29 11:34:38;;;;;;;7.90;3.13;;;12.60;89.50;;;;;;5060015;28;20045;-42
2022/04/29 11:37:06;;;;;;;8.35;3.00;;;12.70;89.00;;;;;;5059775;28;20052;-42
2022/04/29 11:39:35;;;;;;;9.15;3.17;;;12.80;88.80;;;;;;5053851;28;20099;-42
2022/04/29 11:42:02;;;;;;;5.35;3.13;;;13.00;88.90;;;;;;5060725;28;20444;-41
2022/04/29 11:44:35;;;;;;;7.43;2.83;;;13.10;88.10;;;;;;5069893;28;20466;-42
2022/04/29 11:47:01;;;;;;;7.47;3.20;;;13.20;88.00;;;;;;5071597;28;20057;-42
2022/04/29 11:49:28;;;;;;;11.23;4.00;;;13.30;87.30;;;;;;5061741;28;20451;-42
2022/04/29 11:51:56;;;;;;;12.95;3.47;;;13.20;86.70;;;;;;5065151;28;20465;-41
2022/04/29 11:54:23;;;;;;;8.85;3.72;;;13.20;86.60;;;;;;5062245;28;20142;-43
2022/04/29 11:56:50;;;;;;;12.07;4.22;;;13.10;86.40;;;;;;5060854;28;20048;-42
2022/04/29 11:59:16;;;;;;;6.57;4.18;;;13.10;86.80;;;;;;5061477;28;20049;-42
2022/04/29 12:01:43;;;;;;;9.75;4.00;;;13.00;86.40;;;;;;5057188;28;20503;-43
2022/04/29 12:04:12;;;;;;;7.20;4.03;;;13.00;86.60;;;;;;5062548;28;20045;-42
2022/04/29 12:06:58;;;;;;;7.38;4.00;;;13.00;86.70;;;;;;5061302;28;20045;-42
2022/04/29 12:09:32;;;;;;;8.75;4.07;;;12.90;85.60;;;;;;5068176;28;20396;-42
2022/04/29 12:11:59;;;;;;;11.82;4.20;;;12.80;85.90;;;;;;5054664;28;20404;-42
2022/04/29 12:14:26;;;;;;;15.32;4.63;;;12.80;86.40;;;;;;5067488;28;20049;-42
2022/04/29 12:16:53;;;;;;;8.43;3.90;;;12.90;87.20;;;;;;5063693;28;21380;-42
2022/04/29 12:19:21;;;;;;;6.97;3.70;;;12.90;86.70;;;;;;5062690;28;20481;-40
2022/04/29 12:21:55;;;;;;;9.32;4.07;;;13.00;86.00;;;;;;5060717;28;20866;-43
2022/04/29 12:24:23;;;;;;;8.48;3.72;;;13.00;85.90;;;;;;5065961;28;20052;-41
2022/04/29 12:27:05;;;;;;;7.65;4.05;;;13.10;86.10;;;;;;5064451;28;20127;-42
2022/04/29 12:29:32;;;;;;;12.00;4.32;;;13.10;84.60;;;;;;5060619;28;20087;-41
2022/04/29 12:35:06;;;;;;;8.13;4.72;;;13.00;85.50;;;;;;5071875;28;20086;-42
2022/04/29 12:37:32;;;;;;;10.30;4.97;;;12.90;85.60;;;;;;5064261;28;20040;-42
2022/04/29 12:40:05;;;;;;;9.80;4.55;;;12.90;85.60;;;;;;5060954;28;20041;-41
2022/04/29 12:42:32;;;;;;;7.07;4.20;;;12.90;85.00;;;;;;5059775;28;20049;-42
2022/04/29 12:45:05;;;;;;;7.68;4.18;;;12.90;85.40;;;;;;5071046;28;20053;-42
2022/04/29 12:47:32;;;;;;;7.88;4.20;;;13.00;85.10;;;;;;5070807;28;20106;-41
2022/04/29 12:50:17;;;;;;;10.93;4.18;;;12.90;85.20;;;;;;5069315;28;20428;-41
2022/04/29 12:52:56;;;;;;;12.77;4.72;;;13.00;85.20;;;;;;5063578;28;20037;-40
2022/04/29 12:55:25;;;;;;;10.15;4.47;;;12.90;86.40;;;;;;5065748;28;20056;-43
2022/04/29 12:57:51;;;;;;;15.98;4.50;;;13.00;85.80;;;;;;5057116;28;20045;-42
2022/04/29 13:00:25;;;;;;;11.10;4.57;;;13.10;85.70;;;;;;5057041;28;20045;-43
2022/04/29 13:03:01;;;;;;;6.35;4.00;;;13.20;84.20;;;;;;5063138;28;20075;-41
2022/04/29 13:05:28;;;;;;;6.60;4.10;;;13.20;84.50;;;;;;5055654;28;20463;-42
2022/04/29 13:07:55;;;;;;;11.45;4.60;;;13.10;84.40;;;;;;5059745;28;20052;-43
2022/04/29 13:10:22;;;;;;;7.60;4.63;;;13.20;84.10;;;;;;5066066;28;20045;-43
2022/04/29 13:12:50;;;;;;;10.77;4.60;;;13.30;84.00;;;;;;5051319;28;20045;-43
2022/04/29 13:15:17;;;;;;;7.72;4.00;;;13.30;82.80;;;;;;5064755;28;20118;-42
2022/04/29 13:17:44;;;;;;;8.75;3.55;;;13.40;83.00;;;;;;5075300;28;20048;-42
2022/04/29 13:20:11;;;;;;;7.25;3.72;;;13.50;83.30;;;;;;5060171;28;20534;-42
2022/04/29 13:22:39;;;;;;;8.57;4.15;;;13.50;82.10;;;;;;5070122;28;20051;-43